Terminal Aerodrome Forecast
Issued by NWS Louisville, KY

Home | Current Version | Previous Version | Text Only | Print | Product List | Glossary On
Versions: 1 2 3 4 5 6 7 8 9 10 11 12 13
056
FTUS43 KLMK 301014 AAB
TAFBWG
TAF AMD
KBWG 301014Z 3010/0106 20005KT P6SM VCSH SCT020 OVC100
     FM301200 23005KT P6SM VCSH BKN020
     FM301800 26010KT P6SM BKN035=

USA.gov is the U.S. government's official web portal to all federal, state and local government web resources and services.